Flight Track Log - Related Links

Times and Time Zones

All times are in EDT time to prevent confusion due to time zone crossing. See the SKW6525 flight status page for this flight to view local times or setup timezone preferences in your user account.

Time Position Orientation Groundspeed Altitude Reporting Facility
EDT Latitude Longitude Course Direction KTS MPH feet Rate Location/Type
Wed 11:39:56 PM 39.7333 -104.6167 168° South 251 289 8,100  Level Denver TRACON
Wed 11:40:50 PM 39.6667 -104.5833 159° South 279 321 9,600 1,500 Climbing Denver TRACON
Wed 11:41:00 PM 39.6678 -104.3793 205° Southwest  Level FlightAware Approximate
Wed 11:41:56 PM 39.5833 -104.5667 171° South 300 345 11,100  Level Denver TRACON
Wed 11:42:00 PM 39.5568 -104.4432 218° Southwest  Level FlightAware Approximate
Wed 11:43:00 PM 39.4478 -104.5000 180° South  Level FlightAware Approximate
Wed 11:43:09 PM 39.4667 -104.5347 168° South 339 390 12,300  Level Denver Center
Wed 11:44:00 PM 39.3430 -104.5000 180° South  Level FlightAware Approximate
Wed 11:44:11 PM 39.3747 -104.5133 170° South 340 391 13,700  Level Denver Center
Wed 11:45:00 PM 39.2394 -104.4803 168° South  Level FlightAware Approximate
Wed 11:45:13 PM 39.2700 -104.4908 171° South 353 406 15,100  Level Denver Center
Wed 11:46:15 PM 39.1717 -104.4675 170° South 361 415 16,400 1,122 Climbing Denver Center
Wed 11:47:16 PM 39.0786 -104.4417 168° South 360 414 17,400 1,024 Climbing Denver Center
Wed 11:48:18 PM 39.0058 -104.3192 127° Southeast 378 435 18,500 976 Climbing Denver Center
Wed 11:49:19 PM 38.9492 -104.2044 122° Southeast 390 449 19,400 878 Climbing Denver Center
Wed 11:50:21 PM 38.8869 -104.0786 122° Southeast 402 463 20,300 823 Climbing Denver Center
Wed 11:51:23 PM 38.8214 -103.9450 122° Southeast 418 481 21,100 634 Climbing Denver Center
Wed 11:52:24 PM 38.7486 -103.8014 123° Southeast 429 494 21,600 732 Climbing Denver Center
Wed 11:53:26 PM 38.6861 -103.6744 122° Southeast 436 502 22,600 829 Climbing Denver Center
Wed 11:54:27 PM 38.6244 -103.5506 122° Southeast 431 496 23,300 683 Climbing Denver Center
Wed 11:55:29 PM 38.5522 -103.4083 123° Southeast 435 501 24,000 634 Climbing Denver Center
Wed 11:56:30 PM 38.4892 -103.2817 122° Southeast 439 505 24,600 585 Climbing Denver Center
Wed 11:57:32 PM 38.4144 -103.1344 123° Southeast 444 511 25,200 581 Climbing Denver Center
Wed 11:58:34 PM 38.3503 -103.0086 123° Southeast 444 511 25,800 683 Climbing Denver Center
Wed 11:59:35 PM 38.2756 -102.8633 123° Southeast 440 506 26,600 780 Climbing Denver Center
Thu 12:00:37 AM 38.2111 -102.7383 123° Southeast 441 507 27,400 634 Climbing Denver Center
Thu 12:01:38 AM 38.1494 -102.6175 123° Southeast 431 496 27,900 537 Climbing Denver Center
Thu 12:02:40 AM 38.0758 -102.4756 123° Southeast 432 497 28,500 537 Climbing Denver Center
Thu 12:03:41 AM 38.0114 -102.3542 124° Southeast 433 498 29,000 488 Climbing Denver Center
Thu 12:04:43 AM 37.9386 -102.2106 123° Southeast 435 501 29,500 439 Climbing Denver Center
Thu 12:05:44 AM 37.8847 -102.1089 124° Southeast 436 502 29,900 535 Climbing Denver Center
Thu 12:06:24 AM 37.8308 -102.0067 124° Southeast 437 503 30,400 588 Climbing Kansas City Center
Thu 12:07:26 AM 37.7556 -101.8653 124° Southeast 435 501 30,900 484 Climbing Kansas City Center
Thu 12:08:28 AM 37.6911 -101.7444 124° Southeast 435 501 31,400 532 Climbing Kansas City Center
Thu 12:09:30 AM 37.6169 -101.6039 124° Southeast 433 498 32,000 488 Climbing Kansas City Center
Thu 12:10:31 AM 37.5519 -101.4836 124° Southeast 435 501 32,400 488 Climbing Kansas City Center
Thu 12:11:33 AM 37.4772 -101.3450 124° Southeast 432 497 33,000 293 Climbing Kansas City Center
Thu 12:12:34 AM 37.4133 -101.2256 124° Southeast 432 497 33,000  Level Kansas City Center
Thu 12:13:36 AM 37.3367 -101.0836 124° Southeast 440 506 33,000  Level Kansas City Center
Thu 12:14:37 AM 37.2700 -100.9614 124° Southeast 446 513 33,000  Level Kansas City Center
Thu 12:15:39 AM 37.2039 -100.8372 124° Southeast 449 517 33,000  Level Kansas City Center
Thu 12:16:40 AM 37.1244 -100.6947 125° Southeast 449 517 33,000  Level Kansas City Center
Thu 12:17:42 AM 37.0575 -100.5686 124° Southeast 454 522 33,000  Level Kansas City Center
Thu 12:18:44 AM 36.9772 -100.4242 125° Southeast 454 522 33,000  Level Kansas City Center
Thu 12:19:45 AM 36.9083 -100.3000 125° Southeast 455 524 33,000  Level Kansas City Center
Thu 12:20:46 AM 36.8286 -100.1550 124° Southeast 455 524 33,000  Level Kansas City Center
Thu 12:21:48 AM 36.7600 -100.0325 125° Southeast 457 526 33,000  Level Kansas City Center
Thu 12:22:49 AM 36.6872 -99.9033 125° Southeast 455 524 33,000  Level Kansas City Center
Thu 12:23:51 AM 36.6150 -99.7733 125° Southeast 455 524 33,000  Level Kansas City Center
Thu 12:24:52 AM 36.5428 -99.6444 125° Southeast 453 521 33,000  Level Kansas City Center
Thu 12:25:54 AM 36.4697 -99.5153 125° Southeast 454 522 33,000 -439 Level Kansas City Center
Thu 12:26:55 AM 36.3961 -99.3864 125° Southeast 455 524 32,100 -1,475 Descending Kansas City Center
Thu 12:27:56 AM 36.3181 -99.2483 125° Southeast 481 554 30,000 -2,244 Descending Kansas City Center
Thu 12:28:58 AM 36.2297 -99.0919 125° Southeast 483 556 27,500 -2,244 Descending Kansas City Center
Thu 12:29:59 AM 36.1542 -98.9614 126° Southeast 471 542 25,400 -2,049 Descending Kansas City Center
Thu 12:31:01 AM 36.0781 -98.8328 126° Southeast 465 535 23,300 -2,195 Descending Kansas City Center
Thu 12:32:02 AM 35.9964 -98.6914 125° Southeast 454 522 20,900 -2,164 Descending Kansas City Center
Thu 12:33:03 AM 35.9264 -98.5706 126° Southeast 437 503 18,900 -1,918 Descending Kansas City Center
Thu 12:34:04 AM 35.8581 -98.4536 126° Southeast 423 487 17,000 -1,951 Descending Kansas City Center
Thu 12:35:06 AM 35.7936 -98.3439 126° Southeast 403 464 14,900 -1,854 Descending Kansas City Center
Thu 12:36:07 AM 35.7367 -98.2369 123° Southeast 362 417 13,200 -1,623 Descending Kansas City Center
Thu 12:37:08 AM 35.6922 -98.1447 121° Southeast 326 375 11,600 -1,632 Descending Kansas City Center
Thu 12:38:01 AM 35.6506 -98.0700 124° Southeast 292 336 10,100 -1,700 Descending Fort Worth Center
Thu 12:39:08 AM 35.6072 -97.9778 120° Southeast 283 326 8,200 -1,748 Descending Fort Worth Center
Thu 12:40:08 AM 35.5658 -97.8983 123° Southeast 277 319 6,400 -1,878 Descending Fort Worth Center
Thu 12:41:03 AM 35.5286 -97.8242 122° Southeast 276 318 4,600 -1,140 Descending Fort Worth Center
Thu 12:42:09 AM 35.4933 -97.7375 117° Southeast 268 308 4,100 -714 Descending Fort Worth Center
Thu 12:43:09 AM 35.4642 -97.6889 126° Southeast 222 255 3,100 -931 Descending Fort Worth Center
Thu 12:44:05 AM 35.4372 -97.6608 140° Southeast 125 144 2,300 -750 Descending Fort Worth Center
Thu 12:45:09 AM 35.4103 -97.6275 135° Southeast 142 163 1,600 -484 Descending Fort Worth Center
Thu 12:46:09 AM 35.3872 -97.5969 133° Southeast 135 155 1,300 -300 Descending Fort Worth Center

Login

Don't have an account? Register now (free) for customized features, flight alerts, and more!